Terminal Aerodrome Forecast
Issued by NWS

Home | Current Version | Previous Version | Text Only | Print | Product List | Glossary On
Versions: 1 2 3 4 5 6 7 8 9 10 11 12 13
757
FTUS42 KMHX 251126
TAFISO
TAF
KISO 251126Z 2512/2612 21004KT 4SM BR SCT003
     FM251300 21006KT P6SM SKC
     FM251600 21008KT P6SM SCT040
     FM261100 22003KT 5SM BR SKC
      AMD LTD TO CLD VIS AND WIND=

USA.gov is the U.S. government's official web portal to all federal, state and local government web resources and services.